Latest Weather Observations for Terrey Hills

IDN60901

Issued at 3:11 pm EST Sunday 5 April 2020 (issued every 10 minutes, with the page automatically refreshed every 10 minutes)

About weather observations | Map of Sydney area stations | Latest observations for Sydney area | Other Formats
Station Details ID: 066059 Name: TERREY HILLS AWS Lat: -33.69 Lon: 151.23 Height: 199.0 m
Data from the previous 72 hours. | See also: Recent months at Terrey Hills
Date/Time
EST
Temp
°C
App
Temp
°C
Dew
Point
°C
Rel
Hum
%
Delta-T
°C
Wind Press
QNH
hPa
Press
MSL
hPa
Rain since
9am
mm
Dir  Spd
km/h
Gust
km/h
Spd
kts
Gust
kts
05/03:00pm 22.6 18.8 6.0 34 8.5 W 15 28 8 15 - - 0.0
05/02:30pm 22.8 20.4 7.0 36 8.2 W 9 22 5 12 - - 0.0
05/02:00pm 22.3 17.8 6.1 35 8.3 W 19 32 10 17 - - 0.0
05/01:30pm 22.4 19.0 7.8 39 7.7 W 15 28 8 15 - - 0.0
05/01:00pm 21.8 18.7 7.2 39 7.6 WNW 13 30 7 16 - - 0.0
05/12:30pm 21.1 17.8 8.0 43 6.9 W 15 26 8 14 - - 0.0
05/12:00pm 20.7 17.6 7.3 42 6.9 W 13 30 7 16 - - 0.0
05/11:30am 20.5 17.4 7.2 42 6.9 WNW 13 28 7 15 - - 0.0
05/11:00am 19.5 16.3 8.5 49 5.8 W 15 26 8 14 - - 0.0
05/10:30am - - - - - W 13 32 7 17 - - 0.0
05/10:00am - - - - - W 15 28 8 15 - - 0.0
05/09:30am - - - - - WNW 11 24 6 13 - - 0.0
05/09:00am - - - - - NW 11 20 6 11 - - 0.2
05/08:30am - - - - - WNW 13 22 7 12 - - 0.2
05/08:00am - - - - - WNW 9 19 5 10 - - 0.2
05/07:30am - - - - - WNW 11 24 6 13 - - 0.2
05/07:00am - - - - - NW 7 13 4 7 - - 0.2
05/06:30am - - - - - WNW 13 20 7 11 - - 0.2
05/06:00am - - - - - WNW 11 20 6 11 - - 0.2
05/05:30am - - - - - WNW 9 17 5 9 - - 0.2
05/05:00am 12.6 10.2 7.1 69 2.7 WNW 9 17 5 9 - - 0.2
05/04:30am 12.5 10.5 7.2 70 2.6 NW 7 13 4 7 - - 0.2
05/04:00am 12.4 10.6 7.3 71 2.5 NW 6 11 3 6 - - 0.2
05/03:30am 12.2 10.4 7.1 71 2.5 NW 6 13 3 7 - - 0.2
05/03:00am 12.7 11.1 6.5 66 3.0 NW 4 7 2 4 - - 0.2
05/03:30am 13.7 12.5 6.6 62 3.5 NNW 2 4 1 2 - - 0.2
05/03:00am 13.4 11.5 6.5 63 3.3 NW 6 13 3 7 - - 0.2
05/02:30am 13.6 11.7 6.5 62 3.4 NW 6 9 3 5 - - 0.2
05/02:00am 14.0 11.5 6.6 61 3.6 NW 9 17 5 9 - - 0.2
05/01:30am 14.1 12.1 6.9 62 3.5 NW 7 13 4 7 - - 0.2
05/01:00am 14.6 12.7 7.4 62 3.6 NW 7 13 4 7 - - 0.2
05/12:30am 14.8 13.3 6.9 59 3.9 NW 4 6 2 3 - - 0.2
05/12:00am 15.5 12.6 6.5 55 4.4 WNW 11 22 6 12 - - 0.2
 
Date/Time
EST
Temp
°C
App
Temp
°C
Dew
Point
°C
Rel
Hum
%
Delta-T
°C
Wind Press
QNH
hPa
Press
MSL
hPa
Rain since
9am
mm
Dir  Spd
km/h
Gust
km/h
Spd
kts
Gust
kts
04/11:30pm 15.8 13.8 7.1 56 4.3 WNW 7 20 4 11 - - 0.2
04/11:00pm 15.3 13.5 7.3 59 4.0 WNW 6 13 3 7 - - 0.2
04/10:30pm 16.3 13.9 7.0 54 4.6 WNW 9 26 5 14 - - 0.2
04/10:00pm 15.8 14.0 7.1 56 4.3 W 6 11 3 6 - - 0.2
04/09:30pm 16.6 14.6 6.4 51 5.0 WSW 6 9 3 5 - - 0.2
04/09:00pm 16.9 14.0 6.7 51 5.1 WNW 11 24 6 13 - - 0.2
04/08:30pm 17.5 15.0 6.4 48 5.5 WNW 9 19 5 10 - - 0.2
04/08:00pm 18.2 14.1 6.1 45 6.0 W 17 32 9 17 - - 0.2
04/07:30pm 18.4 14.6 5.9 44 6.2 WNW 15 32 8 17 - - 0.2
04/07:00pm 18.8 14.7 6.3 44 6.3 W 17 30 9 16 - - 0.2
04/06:30pm 19.6 15.5 6.4 42 6.7 W 17 30 9 16 - - 0.2
04/06:00pm 20.8 16.3 6.0 38 7.5 W 19 33 10 18 - - 0.2
04/05:30pm 21.3 17.0 6.8 39 7.5 W 19 37 10 20 - - 0.2
04/05:00pm 21.8 16.9 6.9 38 7.7 W 22 44 12 24 - - 0.2
04/04:30pm 22.2 17.7 6.8 37 8.0 W 20 35 11 19 - - 0.2
04/04:00pm 22.4 17.6 7.4 38 7.9 W 22 44 12 24 - - 0.2
04/03:30pm 22.4 17.7 6.2 35 8.3 W 20 46 11 25 - - 0.2
04/03:15pm 22.4 16.2 6.2 35 8.3 W 28 54 15 29 - - 0.2
04/03:00pm 22.6 17.5 7.6 38 7.9 W 24 41 13 22 - - 0.2
04/02:30pm 22.7 17.4 6.9 36 8.2 W 24 48 13 26 - - 0.2
04/02:00pm 23.5 17.3 6.3 33 8.9 W 28 56 15 30 - - 0.2
04/01:54pm 23.8 17.4 5.2 30 9.4 W 28 56 15 30 - - 0.2
04/01:30pm 24.3 19.7 9.5 39 8.1 W 24 46 13 25 - - 0.2
04/01:00pm 24.4 21.6 11.4 44 7.4 WNW 17 33 9 18 - - 0.2
04/12:30pm 24.5 22.8 15.7 58 5.4 WNW 19 39 10 21 - - 0.2
04/12:00pm 23.9 22.9 16.7 64 4.5 NW 17 30 9 16 - - 0.2
04/11:30am 23.3 23.3 17.3 69 3.7 NW 13 24 7 13 - - 0.2
04/11:00am 22.4 22.4 17.1 72 3.3 NW 13 28 7 15 - - 0.2
04/10:30am 21.3 21.6 17.9 81 2.1 NW 13 24 7 13 - - 0.2
04/10:00am 20.2 22.1 19.0 93 0.8 NNW 7 13 4 7 - - 0.2
04/09:30am 19.2 20.5 18.4 95 0.5 NW 9 19 5 10 - - 0.2
04/09:00am 18.7 18.7 18.2 97 0.3 NNW 15 30 8 16 - - 15.0
04/08:30am 18.4 18.8 18.2 99 0.1 NNW 13 24 7 13 - - 14.6
04/08:00am 18.6 18.8 18.6 100 0.0 NNW 15 26 8 14 - - 13.8
04/07:30am 18.8 18.7 18.8 100 0.0 NNW 17 32 9 17 - - 13.2
04/07:00am 18.9 18.9 18.9 100 0.0 NNW 17 30 9 16 - - 9.6
04/06:30am 19.2 18.5 18.7 97 0.3 NNW 20 37 11 20 - - 6.2
04/06:00am 20.0 20.1 18.3 90 1.1 NNW 15 22 8 12 - - 5.2
04/05:30am 20.4 20.1 18.3 88 1.3 NNW 17 30 9 16 - - 5.2
04/05:00am 19.7 20.2 18.4 92 0.8 N 13 20 7 11 - - 5.2
04/04:30am 19.6 19.7 18.3 92 0.8 N 15 26 8 14 - - 5.2
04/04:00am 19.6 20.1 18.4 93 0.8 N 13 22 7 12 - - 5.2
04/03:30am 19.7 19.8 18.4 92 0.8 N 15 26 8 14 - - 5.2
04/03:00am 19.7 19.5 18.5 93 0.8 N 17 28 9 15 - - 5.2
04/02:30am 19.6 20.2 18.6 94 0.6 N 13 22 7 12 - - 5.2
04/02:00am 19.4 20.0 18.6 95 0.5 N 13 24 7 13 - - 5.2
04/01:30am 19.4 20.0 18.7 96 0.4 N 13 22 7 12 - - 5.2
04/01:00am 19.4 20.1 18.9 97 0.3 N 13 24 7 13 - - 5.2
04/12:30am 19.3 20.1 19.0 98 0.2 N 13 24 7 13 - - 5.2
04/12:00am 19.3 20.6 19.3 100 0.0 N 11 20 6 11 - - 5.2
 
Date/Time
EST
Temp
°C
App
Temp
°C
Dew
Point
°C
Rel
Hum
%
Delta-T
°C
Wind Press
QNH
hPa
Press
MSL
hPa
Rain since
9am
mm
Dir  Spd
km/h
Gust
km/h
Spd
kts
Gust
kts
03/11:30pm 19.1 20.7 19.1 100 0.0 N 9 13 5 7 - - 5.2
03/11:00pm 19.1 21.1 19.1 100 0.0 N 7 13 4 7 - - 5.2
03/10:30pm 19.0 20.5 19.0 100 0.0 NNE 9 17 5 9 - - 5.2
03/10:00pm 19.1 20.7 19.1 100 0.0 N 9 13 5 7 - - 5.2
03/09:30pm 19.1 20.3 19.1 100 0.0 N 11 17 6 9 - - 5.2
03/09:00pm 19.1 20.7 19.1 100 0.0 N 9 17 5 9 - - 5.2
03/08:30pm 19.1 20.7 19.1 100 0.0 NNE 9 17 5 9 - - 5.0
03/08:00pm 19.1 20.7 19.1 100 0.0 NNE 9 19 5 10 - - 4.6
03/07:30pm 19.3 21.0 19.3 100 0.0 NNE 9 19 5 10 - - 4.2
03/07:00pm 19.3 20.2 19.3 100 0.0 NNE 13 24 7 13 - - 3.8
03/06:30pm 19.5 20.9 19.5 100 0.0 N 11 17 6 9 - - 2.4
03/06:00pm 19.8 22.0 19.5 98 0.2 NNE 7 11 4 6 - - 1.2
03/05:30pm 19.9 22.0 19.4 97 0.3 NNE 7 13 4 7 - - 1.0
03/05:00pm 20.1 22.2 19.4 96 0.4 NNE 7 11 4 6 - - 1.0
03/04:30pm 20.8 23.2 19.6 93 0.8 NNE 6 11 3 6 - - 0.8
03/04:00pm 21.6 23.3 18.4 82 2.0 NNW 7 13 4 7 - - 0.0
03/03:30pm 23.2 24.6 17.7 71 3.4 NNW 7 11 4 6 - - 0.0
03/03:00pm 23.6 24.9 17.6 69 3.8 N 7 15 4 8 - - 0.0
03/02:30pm 23.4 24.2 17.2 68 3.9 N 9 19 5 10 - - 0.0
03/02:00pm 23.5 24.9 17.3 68 3.9 N 6 11 3 6 - - 0.0
03/01:30pm 23.1 24.5 17.3 70 3.6 N 6 9 3 5 - - 0.0
03/01:00pm 22.3 24.2 17.7 75 2.9 NW 4 11 2 6 - - 0.0
03/12:30pm 22.9 24.5 18.2 75 3.0 NW 7 13 4 7 - - 0.0
03/12:00pm 23.0 24.3 17.5 71 3.4 WNW 7 15 4 8 - - 0.0
03/11:30am 23.6 25.1 18.0 71 3.5 NW 7 15 4 8 - - 0.0
03/11:00am 23.3 24.8 17.5 70 3.6 NW 6 11 3 6 - - 0.0
03/10:30am 23.3 24.6 17.1 68 3.9 NW 6 9 3 5 - - 0.0
03/10:00am 22.4 23.5 17.1 72 3.3 NW 7 13 4 7 - - 0.0
03/09:30am 21.8 23.2 17.4 76 2.7 WNW 6 13 3 7 - - 0.0
03/09:00am 21.0 21.7 17.0 78 2.5 NW 9 15 5 8 - - 3.4
03/08:30am 19.9 20.5 16.7 82 1.9 NW 9 15 5 8 - - 3.4
03/08:00am 18.6 19.5 16.6 88 1.2 NW 7 13 4 7 - - 3.4
03/07:30am 18.3 18.4 16.5 89 1.1 NW 11 19 6 10 - - 3.4
03/07:00am 17.6 17.6 16.3 92 0.8 NW 11 20 6 11 - - 3.4
03/06:30am 17.1 17.4 16.1 94 0.6 WNW 9 13 5 7 - - 3.4
03/06:00am 16.9 17.3 16.4 97 0.3 WNW 9 13 5 7 - - 3.4
03/05:30am 16.9 17.7 16.3 96 0.4 WNW 7 13 4 7 - - 3.4
03/05:00am 17.0 17.7 16.2 95 0.5 WNW 7 15 4 8 - - 3.4
03/04:30am 17.5 18.5 16.9 96 0.4 NW 7 15 4 8 - - 3.4
03/04:00am 17.1 18.5 16.5 96 0.4 WNW 4 9 2 5 - - 3.4
03/03:30am 17.1 18.2 16.5 96 0.4 WNW 6 9 3 5 - - 3.4
03/03:00am 17.5 18.6 16.5 94 0.6 WNW 6 9 3 5 - - 3.4
03/02:30am 18.0 19.0 16.9 93 0.7 WNW 7 17 4 9 - - 3.4
03/02:00am 18.2 19.0 17.2 94 0.6 NW 9 19 5 10 - - 3.4
03/01:30am 18.2 18.4 17.6 96 0.4 NW 13 20 7 11 - - 3.4
03/01:00am 18.3 18.6 17.8 97 0.3 NW 13 22 7 12 - - 3.4
03/12:30am 18.2 19.3 18.0 99 0.1 NW 9 19 5 10 - - 3.4
03/12:00am 18.3 19.1 18.1 99 0.1 NNW 11 19 6 10 - - 3.2
 
Date/Time
EST
Temp
°C
App
Temp
°C
Dew
Point
°C
Rel
Hum
%
Delta-T
°C
Wind Press
QNH
hPa
Press
MSL
hPa
Rain since
9am
mm
Dir  Spd
km/h
Gust
km/h
Spd
kts
Gust
kts
02/11:30pm 18.4 18.8 18.2 99 0.1 NNW 13 22 7 12 - - 3.2
02/11:00pm 18.4 19.3 18.4 100 0.0 NNW 11 17 6 9 - - 3.2
02/10:30pm 18.6 19.6 18.6 100 0.0 NNW 11 19 6 10 - - 3.2
02/10:00pm 18.7 19.6 18.5 99 0.1 NNW 11 19 6 10 - - 3.2
02/09:30pm 18.8 19.5 18.8 100 0.0 NNW 13 22 7 12 - - 3.2
02/09:00pm 18.8 19.1 18.8 100 0.0 NNW 15 28 8 15 - - 3.2
02/08:30pm 18.8 19.5 18.8 100 0.0 NNW 13 22 7 12 - - 3.0
02/08:00pm 19.0 19.7 18.8 99 0.1 N 13 24 7 13 - - 2.6
02/07:30pm 19.0 20.1 18.8 99 0.1 N 11 19 6 10 - - 2.4
02/07:00pm 19.3 20.4 18.8 97 0.3 N 11 19 6 10 - - 2.2
02/06:30pm 19.6 21.2 19.1 97 0.3 N 9 19 5 10 - - 2.0
02/06:00pm 19.7 21.3 19.2 97 0.3 N 9 19 5 10 - - 2.0
02/05:30pm 19.9 22.3 19.7 99 0.1 NNE 6 9 3 5 - - 1.8
02/05:00pm 20.0 22.4 19.7 98 0.2 N 6 11 3 6 - - 1.0
02/04:30pm 20.1 22.4 19.4 96 0.4 NNE 6 13 3 7 - - 0.6

Latest Capital City Observations: Canberra | Sydney | Melbourne | Brisbane | Adelaide | Perth | Hobart | Darwin

Other formats

Comma delimited format used in spreadsheet applications
http://www.bom.gov.au/fwo/IDN60901/IDN60901.94759.axf

JavaScript Object Notation format (JSON) in row-major order
http://www.bom.gov.au/fwo/IDN60901/IDN60901.94759.json

Data quality

Most of these data are generated automatically and are frequently updated. Quality checks on data are not normally performed. It is possible for incorrect values to appear. Refer to information at About Latest Weather Observations and please check the disclaimer before using these data.